Station Historical Data
Daily Summary for January 31, 2017 Units:  Both    English   Metric
« Previous Day
Next Day »
Daily Weekly Monthly Yearly Custom
  High: Low: Average:
Temperature: 31.1 °F /  -0.5 °C 19.8 °F /  -6.8 °C 25.5 °F /  -3.6 °C
Dew Point: 29.2 °F /  -1.6 °C 12.4 °F /  -10.9 °C 20.8 °F /  -6.2 °C
Humidity: 93% 70% 82%
Wind Speed: 11.0mph /  17.7km/h - 1.9mph /  3.1km/h
Wind Gust: 14.0mph /  22.5km/h - -
Wind- - SE
Pressure: 29.94 in /  1013.8 hPa 29.63 in /  1003.3 hPa -
Precipitation: 0.00 in /  0 mm    
Historical Graphs
 
 
Tabular Data for January 31, 2017
Time Temperature Dew Point Pressure Wind Wind Speed Wind Gust Humidity Rainfall Rate (Hourly)
00:04 20.7 °F /  -6.3 °C 16.6 °F /  -8.6 °C 29.94in /  1013.8hPa SE 1.0mph /  1.6km/h 4.0mph /  6.4km/h 84% 0.00in /  0mm
00:09 20.7 °F /  -6.3 °C 16.6 °F /  -8.6 °C 29.94in /  1013.8hPa Calm   2.0mph /  3.2km/h 84% 0.00in /  0mm
00:14 20.7 °F /  -6.3 °C 16.6 °F /  -8.6 °C 29.94in /  1013.8hPa Calm   2.0mph /  3.2km/h 84% 0.00in /  0mm
00:19 20.7 °F /  -6.3 °C 16.6 °F /  -8.6 °C 29.94in /  1013.8hPa SE 1.0mph /  1.6km/h 2.0mph /  3.2km/h 84% 0.00in /  0mm
00:24 20.7 °F /  -6.3 °C 16.6 °F /  -8.6 °C 29.94in /  1013.8hPa Calm   3.0mph /  4.8km/h 84% 0.00in /  0mm
00:29 20.8 °F /  -6.2 °C 16.7 °F /  -8.5 °C 29.93in /  1013.4hPa SSE 1.0mph /  1.6km/h 4.0mph /  6.4km/h 84% 0.00in /  0mm
00:34 20.7 °F /  -6.3 °C 16.6 °F /  -8.6 °C 29.93in /  1013.4hPa Calm   3.0mph /  4.8km/h 84% 0.00in /  0mm
00:39 20.6 °F /  -6.3 °C 16.3 °F /  -8.7 °C 29.93in /  1013.4hPa East 2.0mph /  3.2km/h 3.0mph /  4.8km/h 83% 0.00in /  0mm
00:44 20.6 °F /  -6.3 °C 16.3 °F /  -8.7 °C 29.93in /  1013.4hPa ESE 1.0mph /  1.6km/h 3.0mph /  4.8km/h 83% 0.00in /  0mm
00:49 20.6 °F /  -6.3 °C 16.3 °F /  -8.7 °C 29.92in /  1013.1hPa ESE 1.0mph /  1.6km/h 4.0mph /  6.4km/h 83% 0.00in /  0mm
00:54 20.5 °F /  -6.4 °C 16.2 °F /  -8.8 °C 29.92in /  1013.1hPa East 2.0mph /  3.2km/h 4.0mph /  6.4km/h 83% 0.00in /  0mm
00:59 20.5 °F /  -6.4 °C 16.2 °F /  -8.8 °C 29.92in /  1013.1hPa ESE 2.0mph /  3.2km/h 3.0mph /  4.8km/h 83% 0.00in /  0mm
01:04 20.5 °F /  -6.4 °C 16.2 °F /  -8.8 °C 29.92in /  1013.1hPa ESE 3.0mph /  4.8km/h 5.0mph /  8km/h 83% 0.00in /  0mm
01:09 20.5 °F /  -6.4 °C 16.2 °F /  -8.8 °C 29.91in /  1012.8hPa Calm   5.0mph /  8km/h 83% 0.00in /  0mm
01:14 20.5 °F /  -6.4 °C 16.2 °F /  -8.8 °C 29.91in /  1012.8hPa SE 2.0mph /  3.2km/h 5.0mph /  8km/h 83% 0.00in /  0mm
01:19 20.4 °F /  -6.4 °C 16.1 °F /  -8.8 °C 29.90in /  1012.4hPa ESE 2.0mph /  3.2km/h 5.0mph /  8km/h 83% 0.00in /  0mm
01:24 20.4 °F /  -6.4 °C 16.1 °F /  -8.8 °C 29.90in /  1012.4hPa SE 2.0mph /  3.2km/h 5.0mph /  8km/h 83% 0.00in /  0mm
01:29 20.4 °F /  -6.4 °C 16.1 °F /  -8.8 °C 29.90in /  1012.4hPa SE 2.0mph /  3.2km/h 5.0mph /  8km/h 83% 0.00in /  0mm
01:34 20.5 °F /  -6.4 °C 15.9 °F /  -8.9 °C 29.90in /  1012.4hPa ESE 2.0mph /  3.2km/h 5.0mph /  8km/h 82% 0.00in /  0mm
01:39 20.4 °F /  -6.4 °C 15.8 °F /  -9 °C 29.90in /  1012.4hPa SSE 3.0mph /  4.8km/h 5.0mph /  8km/h 82% 0.00in /  0mm
01:44 20.4 °F /  -6.4 °C 15.8 °F /  -9 °C 29.89in /  1012.1hPa SE 2.0mph /  3.2km/h 5.0mph /  8km/h 82% 0.00in /  0mm
01:49 20.5 °F /  -6.4 °C 15.6 °F /  -9.1 °C 29.89in /  1012.1hPa SSE 2.0mph /  3.2km/h 4.0mph /  6.4km/h 81% 0.00in /  0mm
01:54 20.5 °F /  -6.4 °C 15.6 °F /  -9.1 °C 29.89in /  1012.1hPa SSE 2.0mph /  3.2km/h 5.0mph /  8km/h 81% 0.00in /  0mm
01:59 20.6 °F /  -6.3 °C 15.4 °F /  -9.2 °C 29.88in /  1011.7hPa SSE 4.0mph /  6.4km/h 4.0mph /  6.4km/h 80% 0.00in /  0mm
02:04 20.7 °F /  -6.3 °C 15.2 °F /  -9.3 °C 29.88in /  1011.7hPa SSE 2.0mph /  3.2km/h 5.0mph /  8km/h 79% 0.00in /  0mm
02:09 20.7 °F /  -6.3 °C 14.6 °F /  -9.7 °C 29.88in /  1011.7hPa SE 1.0mph /  1.6km/h 4.0mph /  6.4km/h 77% 0.00in /  0mm
02:14 20.7 °F /  -6.3 °C 14.6 °F /  -9.7 °C 29.88in /  1011.7hPa SE 3.0mph /  4.8km/h 4.0mph /  6.4km/h 77% 0.00in /  0mm
02:19 20.7 °F /  -6.3 °C 14.6 °F /  -9.7 °C 29.87in /  1011.4hPa SE 2.0mph /  3.2km/h 5.0mph /  8km/h 77% 0.00in /  0mm
02:24 20.7 °F /  -6.3 °C 14.6 °F /  -9.7 °C 29.87in /  1011.4hPa SE 2.0mph /  3.2km/h 5.0mph /  8km/h 77% 0.00in /  0mm
02:29 20.6 °F /  -6.3 °C 14.2 °F /  -9.9 °C 29.87in /  1011.4hPa SE 2.0mph /  3.2km/h 6.0mph /  9.7km/h 76% 0.00in /  0mm
02:34 20.6 °F /  -6.3 °C 14.2 °F /  -9.9 °C 29.86in /  1011.1hPa SE 2.0mph /  3.2km/h 6.0mph /  9.7km/h 76% 0.00in /  0mm
02:39 20.4 °F /  -6.4 °C 14.3 °F /  -9.8 °C 29.86in /  1011.1hPa ESE 2.0mph /  3.2km/h 6.0mph /  9.7km/h 77% 0.00in /  0mm
02:44 20.4 °F /  -6.4 °C 14.0 °F /  -10 °C 29.85in /  1010.7hPa East 3.0mph /  4.8km/h 4.0mph /  6.4km/h 76% 0.00in /  0mm
02:49 20.4 °F /  -6.4 °C 14.0 °F /  -10 °C 29.85in /  1010.7hPa SE 2.0mph /  3.2km/h 4.0mph /  6.4km/h 76% 0.00in /  0mm
02:54 20.5 °F /  -6.4 °C 14.1 °F /  -9.9 °C 29.85in /  1010.7hPa SE 2.0mph /  3.2km/h 7.0mph /  11.3km/h 76% 0.00in /  0mm
02:59 20.5 °F /  -6.4 °C 13.8 °F /  -10.1 °C 29.84in /  1010.4hPa ESE 2.0mph /  3.2km/h 5.0mph /  8km/h 75% 0.00in /  0mm
03:04 20.5 °F /  -6.4 °C 13.8 °F /  -10.1 °C 29.84in /  1010.4hPa SE 2.0mph /  3.2km/h 5.0mph /  8km/h 75% 0.00in /  0mm
03:09 20.5 °F /  -6.4 °C 13.5 °F /  -10.3 °C 29.84in /  1010.4hPa SE 4.0mph /  6.4km/h 7.0mph /  11.3km/h 74% 0.00in /  0mm
03:14 20.3 °F /  -6.5 °C 13.3 °F /  -10.4 °C 29.83in /  1010hPa SE 3.0mph /  4.8km/h 5.0mph /  8km/h 74% 0.00in /  0mm
03:19 20.2 °F /  -6.6 °C 13.2 °F /  -10.4 °C 29.83in /  1010hPa SE 2.0mph /  3.2km/h 6.0mph /  9.7km/h 74% 0.00in /  0mm
03:24 20.2 °F /  -6.6 °C 13.2 °F /  -10.4 °C 29.83in /  1010hPa ESE 3.0mph /  4.8km/h 6.0mph /  9.7km/h 74% 0.00in /  0mm
03:29 20.1 °F /  -6.6 °C 13.1 °F /  -10.5 °C 29.82in /  1009.7hPa ESE 2.0mph /  3.2km/h 7.0mph /  11.3km/h 74% 0.00in /  0mm
03:34 20.0 °F /  -6.7 °C 13.0 °F /  -10.6 °C 29.82in /  1009.7hPa ESE 2.0mph /  3.2km/h 7.0mph /  11.3km/h 74% 0.00in /  0mm
03:39 20.0 °F /  -6.7 °C 13.0 °F /  -10.6 °C 29.82in /  1009.7hPa ESE 2.0mph /  3.2km/h 6.0mph /  9.7km/h 74% 0.00in /  0mm
03:44 19.9 °F /  -6.7 °C 12.6 °F /  -10.8 °C 29.81in /  1009.4hPa ESE 2.0mph /  3.2km/h 7.0mph /  11.3km/h 73% 0.00in /  0mm
03:49 19.9 °F /  -6.7 °C 12.6 °F /  -10.8 °C 29.80in /  1009hPa East 2.0mph /  3.2km/h 5.0mph /  8km/h 73% 0.00in /  0mm
03:54 19.8 °F /  -6.8 °C 12.5 °F /  -10.8 °C 29.80in /  1009hPa ESE 2.0mph /  3.2km/h 6.0mph /  9.7km/h 73% 0.00in /  0mm
03:59 19.8 °F /  -6.8 °C 12.5 °F /  -10.8 °C 29.80in /  1009hPa ESE 2.0mph /  3.2km/h 5.0mph /  8km/h 73% 0.00in /  0mm
04:04 19.9 °F /  -6.7 °C 12.6 °F /  -10.8 °C 29.80in /  1009hPa SE 2.0mph /  3.2km/h 5.0mph /  8km/h 73% 0.00in /  0mm
04:09 19.9 °F /  -6.7 °C 12.6 °F /  -10.8 °C 29.79in /  1008.7hPa Calm   7.0mph /  11.3km/h 73% 0.00in /  0mm
04:14 19.9 °F /  -6.7 °C 12.6 °F /  -10.8 °C 29.79in /  1008.7hPa ESE 2.0mph /  3.2km/h 5.0mph /  8km/h 73% 0.00in /  0mm
04:19 20.0 °F /  -6.7 °C 12.7 °F /  -10.7 °C 29.79in /  1008.7hPa ENE 1.0mph /  1.6km/h 5.0mph /  8km/h 73% 0.00in /  0mm
04:24 20.1 °F /  -6.6 °C 12.8 °F /  -10.7 °C 29.79in /  1008.7hPa ESE 2.0mph /  3.2km/h 6.0mph /  9.7km/h 73% 0.00in /  0mm
04:29 20.2 °F /  -6.6 °C 12.6 °F /  -10.8 °C 29.78in /  1008.4hPa ESE 2.0mph /  3.2km/h 6.0mph /  9.7km/h 72% 0.00in /  0mm
04:34 20.2 °F /  -6.6 °C 12.6 °F /  -10.8 °C 29.78in /  1008.4hPa ESE 2.0mph /  3.2km/h 5.0mph /  8km/h 72% 0.00in /  0mm
04:39 20.3 °F /  -6.5 °C 12.7 °F /  -10.7 °C 29.78in /  1008.4hPa ESE 7.0mph /  11.3km/h 7.0mph /  11.3km/h 72% 0.00in /  0mm
04:44 20.3 °F /  -6.5 °C 12.7 °F /  -10.7 °C 29.78in /  1008.4hPa East 2.0mph /  3.2km/h 7.0mph /  11.3km/h 72% 0.00in /  0mm
04:49 20.4 °F /  -6.4 °C 12.8 °F /  -10.7 °C 29.77in /  1008hPa ESE 2.0mph /  3.2km/h 8.0mph /  12.9km/h 72% 0.00in /  0mm
04:54 20.5 °F /  -6.4 °C 12.6 °F /  -10.8 °C 29.77in /  1008hPa ESE 2.0mph /  3.2km/h 8.0mph /  12.9km/h 71% 0.00in /  0mm
04:59 20.6 °F /  -6.3 °C 12.7 °F /  -10.7 °C 29.77in /  1008hPa ESE 2.0mph /  3.2km/h 6.0mph /  9.7km/h 71% 0.00in /  0mm
05:04 20.6 °F /  -6.3 °C 12.4 °F /  -10.9 °C 29.76in /  1007.7hPa ENE 5.0mph /  8km/h 7.0mph /  11.3km/h 70% 0.00in /  0mm
05:09 20.6 °F /  -6.3 °C 12.4 °F /  -10.9 °C 29.76in /  1007.7hPa SSE 5.0mph /  8km/h 7.0mph /  11.3km/h 70% 0.00in /  0mm
05:14 20.7 °F /  -6.3 °C 12.5 °F /  -10.8 °C 29.76in /  1007.7hPa SSE 3.0mph /  4.8km/h 6.0mph /  9.7km/h 70% 0.00in /  0mm
05:19 20.8 °F /  -6.2 °C 12.6 °F /  -10.8 °C 29.75in /  1007.3hPa SSE 5.0mph /  8km/h 8.0mph /  12.9km/h 70% 0.00in /  0mm
05:24 20.9 °F /  -6.2 °C 12.6 °F /  -10.8 °C 29.75in /  1007.3hPa SE 4.0mph /  6.4km/h 8.0mph /  12.9km/h 70% 0.00in /  0mm
05:29 21.0 °F /  -6.1 °C 12.7 °F /  -10.7 °C 29.75in /  1007.3hPa ESE 4.0mph /  6.4km/h 7.0mph /  11.3km/h 70% 0.00in /  0mm
05:34 21.1 °F /  -6.1 °C 12.8 °F /  -10.7 °C 29.75in /  1007.3hPa SE 3.0mph /  4.8km/h 7.0mph /  11.3km/h 70% 0.00in /  0mm
05:39 21.2 °F /  -6 °C 12.9 °F /  -10.6 °C 29.75in /  1007.3hPa SSE 3.0mph /  4.8km/h 8.0mph /  12.9km/h 70% 0.00in /  0mm
05:44 21.3 °F /  -5.9 °C 13.4 °F /  -10.3 °C 29.74in /  1007hPa SE 8.0mph /  12.9km/h 10.0mph /  16.1km/h 71% 0.00in /  0mm
05:49 21.3 °F /  -5.9 °C 13.4 °F /  -10.3 °C 29.74in /  1007hPa SSE 6.0mph /  9.7km/h 11.0mph /  17.7km/h 71% 0.00in /  0mm
05:54 21.3 °F /  -5.9 °C 13.7 °F /  -10.2 °C 29.74in /  1007hPa SE 5.0mph /  8km/h 11.0mph /  17.7km/h 72% 0.00in /  0mm
05:59 21.3 °F /  -5.9 °C 13.7 °F /  -10.2 °C 29.73in /  1006.7hPa SE 5.0mph /  8km/h 10.0mph /  16.1km/h 72% 0.00in /  0mm
06:04 21.3 °F /  -5.9 °C 13.7 °F /  -10.2 °C 29.73in /  1006.7hPa SE 5.0mph /  8km/h 10.0mph /  16.1km/h 72% 0.00in /  0mm
06:09 21.3 °F /  -5.9 °C 14.0 °F /  -10 °C 29.73in /  1006.7hPa SE 4.0mph /  6.4km/h 10.0mph /  16.1km/h 73% 0.00in /  0mm
06:14 21.2 °F /  -6 °C 13.9 °F /  -10.1 °C 29.73in /  1006.7hPa SE 2.0mph /  3.2km/h 5.0mph /  8km/h 73% 0.00in /  0mm
06:19 21.2 °F /  -6 °C 14.2 °F /  -9.9 °C 29.73in /  1006.7hPa ESE 2.0mph /  3.2km/h 5.0mph /  8km/h 74% 0.00in /  0mm
06:24 21.2 °F /  -6 °C 14.2 °F /  -9.9 °C 29.73in /  1006.7hPa ESE 5.0mph /  8km/h 9.0mph /  14.5km/h 74% 0.00in /  0mm
06:29 21.3 °F /  -5.9 °C 14.3 °F /  -9.8 °C 29.73in /  1006.7hPa SE 3.0mph /  4.8km/h 9.0mph /  14.5km/h 74% 0.00in /  0mm
06:34 21.2 °F /  -6 °C 14.5 °F /  -9.7 °C 29.72in /  1006.3hPa ESE 3.0mph /  4.8km/h 7.0mph /  11.3km/h 75% 0.00in /  0mm
06:39 21.3 °F /  -5.9 °C 14.6 °F /  -9.7 °C 29.72in /  1006.3hPa ESE 3.0mph /  4.8km/h 7.0mph /  11.3km/h 75% 0.00in /  0mm
06:44 21.4 °F /  -5.9 °C 15.0 °F /  -9.4 °C 29.72in /  1006.3hPa ESE 3.0mph /  4.8km/h 6.0mph /  9.7km/h 76% 0.00in /  0mm
06:49 21.5 °F /  -5.8 °C 14.8 °F /  -9.6 °C 29.72in /  1006.3hPa SE 3.0mph /  4.8km/h 8.0mph /  12.9km/h 75% 0.00in /  0mm
06:54 21.6 °F /  -5.8 °C 15.2 °F /  -9.3 °C 29.72in /  1006.3hPa East 2.0mph /  3.2km/h 10.0mph /  16.1km/h 76% 0.00in /  0mm
06:59 21.7 °F /  -5.7 °C 15.3 °F /  -9.3 °C 29.72in /  1006.3hPa SE 3.0mph /  4.8km/h 10.0mph /  16.1km/h 76% 0.00in /  0mm
07:04 21.8 °F /  -5.7 °C 15.4 °F /  -9.2 °C 29.72in /  1006.3hPa SE 2.0mph /  3.2km/h 9.0mph /  14.5km/h 76% 0.00in /  0mm
07:09 21.8 °F /  -5.7 °C 15.4 °F /  -9.2 °C 29.72in /  1006.3hPa East 2.0mph /  3.2km/h 7.0mph /  11.3km/h 76% 0.00in /  0mm
07:14 21.8 °F /  -5.7 °C 15.4 °F /  -9.2 °C 29.72in /  1006.3hPa SSE 2.0mph /  3.2km/h 5.0mph /  8km/h 76% 0.00in /  0mm
07:19 21.9 °F /  -5.6 °C 15.8 °F /  -9 °C 29.72in /  1006.3hPa East 6.0mph /  9.7km/h 6.0mph /  9.7km/h 77% 0.00in /  0mm
07:24 21.9 °F /  -5.6 °C 15.8 °F /  -9 °C 29.72in /  1006.3hPa Calm   6.0mph /  9.7km/h 77% 0.00in /  0mm
07:29 21.9 °F /  -5.6 °C 15.8 °F /  -9 °C 29.72in /  1006.3hPa ESE 3.0mph /  4.8km/h 6.0mph /  9.7km/h 77% 0.00in /  0mm
07:34 21.9 °F /  -5.6 °C 15.8 °F /  -9 °C 29.72in /  1006.3hPa ESE 3.0mph /  4.8km/h 7.0mph /  11.3km/h 77% 0.00in /  0mm
07:39 21.9 °F /  -5.6 °C 16.1 °F /  -8.8 °C 29.72in /  1006.3hPa ESE 3.0mph /  4.8km/h 7.0mph /  11.3km/h 78% 0.00in /  0mm
07:44 21.8 °F /  -5.7 °C 16.3 °F /  -8.7 °C 29.71in /  1006hPa East 3.0mph /  4.8km/h 9.0mph /  14.5km/h 79% 0.00in /  0mm
07:49 21.7 °F /  -5.7 °C 16.5 °F /  -8.6 °C 29.72in /  1006.3hPa East 4.0mph /  6.4km/h 9.0mph /  14.5km/h 80% 0.00in /  0mm
07:54 21.6 °F /  -5.8 °C 16.7 °F /  -8.5 °C 29.71in /  1006hPa East 3.0mph /  4.8km/h 9.0mph /  14.5km/h 81% 0.00in /  0mm
07:59 21.6 °F /  -5.8 °C 16.7 °F /  -8.5 °C 29.71in /  1006hPa ESE 5.0mph /  8km/h 7.0mph /  11.3km/h 81% 0.00in /  0mm
08:04 21.5 °F /  -5.8 °C 16.6 °F /  -8.6 °C 29.71in /  1006hPa SSE 4.0mph /  6.4km/h 10.0mph /  16.1km/h 81% 0.00in /  0mm
08:09 21.5 °F /  -5.8 °C 17.1 °F /  -8.3 °C 29.72in /  1006.3hPa ESE 5.0mph /  8km/h 8.0mph /  12.9km/h 83% 0.00in /  0mm
08:14 21.4 °F /  -5.9 °C 17.0 °F /  -8.3 °C 29.72in /  1006.3hPa East 3.0mph /  4.8km/h 10.0mph /  16.1km/h 83% 0.00in /  0mm
08:19 21.5 °F /  -5.8 °C 17.4 °F /  -8.1 °C 29.71in /  1006hPa SE 2.0mph /  3.2km/h 5.0mph /  8km/h 84% 0.00in /  0mm
08:24 21.5 °F /  -5.8 °C 17.7 °F /  -7.9 °C 29.71in /  1006hPa ESE 4.0mph /  6.4km/h 12.0mph /  19.3km/h 85% 0.00in /  0mm
08:29 21.4 °F /  -5.9 °C 17.6 °F /  -8 °C 29.71in /  1006hPa NE 2.0mph /  3.2km/h 6.0mph /  9.7km/h 85% 0.00in /  0mm
08:34 21.4 °F /  -5.9 °C 17.9 °F /  -7.8 °C 29.71in /  1006hPa East 3.0mph /  4.8km/h 8.0mph /  12.9km/h 86% 0.00in /  0mm
08:39 21.5 °F /  -5.8 °C 18.0 °F /  -7.8 °C 29.70in /  1005.6hPa East 3.0mph /  4.8km/h 8.0mph /  12.9km/h 86% 0.00in /  0mm
08:44 21.5 °F /  -5.8 °C 18.0 °F /  -7.8 °C 29.70in /  1005.6hPa ENE 3.0mph /  4.8km/h 8.0mph /  12.9km/h 86% 0.00in /  0mm
08:49 21.6 °F /  -5.8 °C 18.3 °F /  -7.6 °C 29.70in /  1005.6hPa ENE 3.0mph /  4.8km/h 9.0mph /  14.5km/h 87% 0.00in /  0mm
08:54 21.6 °F /  -5.8 °C 18.3 °F /  -7.6 °C 29.70in /  1005.6hPa ENE 3.0mph /  4.8km/h 9.0mph /  14.5km/h 87% 0.00in /  0mm
08:59 21.7 °F /  -5.7 °C 18.4 °F /  -7.6 °C 29.70in /  1005.6hPa NE 3.0mph /  4.8km/h 7.0mph /  11.3km/h 87% 0.00in /  0mm
09:04 21.7 °F /  -5.7 °C 18.4 °F /  -7.6 °C 29.70in /  1005.6hPa ENE 3.0mph /  4.8km/h 7.0mph /  11.3km/h 87% 0.00in /  0mm
09:09 21.8 °F /  -5.7 °C 18.5 °F /  -7.5 °C 29.69in /  1005.3hPa ENE 3.0mph /  4.8km/h 7.0mph /  11.3km/h 87% 0.00in /  0mm
09:14 21.9 °F /  -5.6 °C 18.9 °F /  -7.3 °C 29.69in /  1005.3hPa ENE 3.0mph /  4.8km/h 7.0mph /  11.3km/h 88% 0.00in /  0mm
09:19 22.0 °F /  -5.6 °C 19.0 °F /  -7.2 °C 29.69in /  1005.3hPa East 2.0mph /  3.2km/h 6.0mph /  9.7km/h 88% 0.00in /  0mm
09:24 22.0 °F /  -5.6 °C 19.0 °F /  -7.2 °C 29.69in /  1005.3hPa East 2.0mph /  3.2km/h 7.0mph /  11.3km/h 88% 0.00in /  0mm
09:29 22.0 °F /  -5.6 °C 19.0 °F /  -7.2 °C 29.69in /  1005.3hPa NE 3.0mph /  4.8km/h 7.0mph /  11.3km/h 88% 0.00in /  0mm
09:34 22.0 °F /  -5.6 °C 19.0 °F /  -7.2 °C 29.69in /  1005.3hPa ENE 3.0mph /  4.8km/h 6.0mph /  9.7km/h 88% 0.00in /  0mm
09:39 22.2 °F /  -5.4 °C 19.2 °F /  -7.1 °C 29.69in /  1005.3hPa ENE 3.0mph /  4.8km/h 6.0mph /  9.7km/h 88% 0.00in /  0mm
09:44 22.4 °F /  -5.3 °C 19.4 °F /  -7 °C 29.68in /  1005hPa ENE 3.0mph /  4.8km/h 7.0mph /  11.3km/h 88% 0.00in /  0mm
09:49 22.7 °F /  -5.2 °C 19.7 °F /  -6.8 °C 29.68in /  1005hPa ENE 3.0mph /  4.8km/h 7.0mph /  11.3km/h 88% 0.00in /  0mm
09:54 22.9 °F /  -5.1 °C 19.9 °F /  -6.7 °C 29.68in /  1005hPa ENE 3.0mph /  4.8km/h 8.0mph /  12.9km/h 88% 0.00in /  0mm
09:59 23.0 °F /  -5 °C 19.7 °F /  -6.8 °C 29.68in /  1005hPa NE 2.0mph /  3.2km/h 7.0mph /  11.3km/h 87% 0.00in /  0mm
10:04 23.3 °F /  -4.8 °C 20.0 °F /  -6.7 °C 29.68in /  1005hPa ENE 4.0mph /  6.4km/h 9.0mph /  14.5km/h 87% 0.00in /  0mm
10:09 23.6 °F /  -4.7 °C 20.3 °F /  -6.5 °C 29.67in /  1004.6hPa NE 4.0mph /  6.4km/h 9.0mph /  14.5km/h 87% 0.00in /  0mm
10:14 23.9 °F /  -4.5 °C 20.3 °F /  -6.5 °C 29.67in /  1004.6hPa ENE 3.0mph /  4.8km/h 8.0mph /  12.9km/h 86% 0.00in /  0mm
10:19 24.0 °F /  -4.4 °C 20.1 °F /  -6.6 °C 29.67in /  1004.6hPa ENE 4.0mph /  6.4km/h 9.0mph /  14.5km/h 85% 0.00in /  0mm
10:24 24.2 °F /  -4.3 °C 20.3 °F /  -6.5 °C 29.67in /  1004.6hPa ENE 3.0mph /  4.8km/h 9.0mph /  14.5km/h 85% 0.00in /  0mm
10:29 24.5 °F /  -4.2 °C 20.6 °F /  -6.3 °C 29.67in /  1004.6hPa ENE 2.0mph /  3.2km/h 6.0mph /  9.7km/h 85% 0.00in /  0mm
10:34 24.6 °F /  -4.1 °C 20.5 °F /  -6.4 °C 29.67in /  1004.6hPa NE 1.0mph /  1.6km/h 7.0mph /  11.3km/h 84% 0.00in /  0mm
10:39 24.8 °F /  -4 °C 20.7 °F /  -6.3 °C 29.67in /  1004.6hPa East 5.0mph /  8km/h 6.0mph /  9.7km/h 84% 0.00in /  0mm
10:44 24.9 °F /  -3.9 °C 20.8 °F /  -6.2 °C 29.67in /  1004.6hPa East 3.0mph /  4.8km/h 8.0mph /  12.9km/h 84% 0.00in /  0mm
10:49 25.1 °F /  -3.8 °C 20.9 °F /  -6.2 °C 29.66in /  1004.3hPa ENE 3.0mph /  4.8km/h 8.0mph /  12.9km/h 84% 0.00in /  0mm
10:54 25.3 °F /  -3.7 °C 20.9 °F /  -6.2 °C 29.66in /  1004.3hPa NE 4.0mph /  6.4km/h 8.0mph /  12.9km/h 83% 0.00in /  0mm
10:59 25.5 °F /  -3.6 °C 21.1 °F /  -6.1 °C 29.66in /  1004.3hPa East 3.0mph /  4.8km/h 7.0mph /  11.3km/h 83% 0.00in /  0mm
11:04 25.6 °F /  -3.6 °C 20.9 °F /  -6.2 °C 29.66in /  1004.3hPa ENE 3.0mph /  4.8km/h 6.0mph /  9.7km/h 82% 0.00in /  0mm
11:09 25.9 °F /  -3.4 °C 21.2 °F /  -6 °C 29.66in /  1004.3hPa NE 1.0mph /  1.6km/h 7.0mph /  11.3km/h 82% 0.00in /  0mm
11:14 25.9 °F /  -3.4 °C 21.2 °F /  -6 °C 29.66in /  1004.3hPa East 3.0mph /  4.8km/h 7.0mph /  11.3km/h 82% 0.00in /  0mm
11:19 26.4 °F /  -3.1 °C 21.1 °F /  -6.1 °C 29.66in /  1004.3hPa East 3.0mph /  4.8km/h 7.0mph /  11.3km/h 80% 0.00in /  0mm
11:24 26.8 °F /  -2.9 °C 21.5 °F /  -5.8 °C 29.66in /  1004.3hPa East 3.0mph /  4.8km/h 7.0mph /  11.3km/h 80% 0.00in /  0mm
11:29 27.1 °F /  -2.7 °C 21.5 °F /  -5.8 °C 29.66in /  1004.3hPa East 3.0mph /  4.8km/h 8.0mph /  12.9km/h 79% 0.00in /  0mm
11:34 27.0 °F /  -2.8 °C 21.4 °F /  -5.9 °C 29.66in /  1004.3hPa ENE 3.0mph /  4.8km/h 10.0mph /  16.1km/h 79% 0.00in /  0mm
11:39 27.2 °F /  -2.7 °C 21.5 °F /  -5.8 °C 29.66in /  1004.3hPa East 3.0mph /  4.8km/h 8.0mph /  12.9km/h 79% 0.00in /  0mm
11:44 27.5 °F /  -2.5 °C 22.1 °F /  -5.5 °C 29.65in /  1003.9hPa East 3.0mph /  4.8km/h 8.0mph /  12.9km/h 80% 0.00in /  0mm
11:49 27.7 °F /  -2.4 °C 22.0 °F /  -5.6 °C 29.65in /  1003.9hPa ESE 3.0mph /  4.8km/h 7.0mph /  11.3km/h 79% 0.00in /  0mm
11:54 27.8 °F /  -2.3 °C 22.1 °F /  -5.5 °C 29.65in /  1003.9hPa ESE 2.0mph /  3.2km/h 6.0mph /  9.7km/h 79% 0.00in /  0mm
11:59 28.1 °F /  -2.2 °C 22.4 °F /  -5.3 °C 29.65in /  1003.9hPa SE 1.0mph /  1.6km/h 6.0mph /  9.7km/h 79% 0.00in /  0mm
12:04 28.5 °F /  -1.9 °C 22.8 °F /  -5.1 °C 29.65in /  1003.9hPa East 2.0mph /  3.2km/h 5.0mph /  8km/h 79% 0.01in /  0.25mm
12:09 28.6 °F /  -1.9 °C 22.9 °F /  -5.1 °C 29.65in /  1003.9hPa SE 3.0mph /  4.8km/h 5.0mph /  8km/h 79% 0.01in /  0.25mm
12:14 29.0 °F /  -1.7 °C 23.6 °F /  -4.7 °C 29.65in /  1003.9hPa East 2.0mph /  3.2km/h 6.0mph /  9.7km/h 80% 0.01in /  0.25mm
12:19 29.0 °F /  -1.7 °C 23.3 °F /  -4.8 °C 29.65in /  1003.9hPa ENE 2.0mph /  3.2km/h 6.0mph /  9.7km/h 79% 0.01in /  0.25mm
12:24 28.5 °F /  -1.9 °C 22.5 °F /  -5.3 °C 29.65in /  1003.9hPa East 2.0mph /  3.2km/h 5.0mph /  8km/h 78% 0.01in /  0.25mm
12:29 28.9 °F /  -1.7 °C 23.2 °F /  -4.9 °C 29.64in /  1003.6hPa East 2.0mph /  3.2km/h 5.0mph /  8km/h 79% 0.02in /  0.51mm
12:34 28.9 °F /  -1.7 °C 23.5 °F /  -4.7 °C 29.64in /  1003.6hPa East 2.0mph /  3.2km/h 5.0mph /  8km/h 80% 0.02in /  0.51mm
12:39 28.7 °F /  -1.8 °C 23.3 °F /  -4.8 °C 29.64in /  1003.6hPa SE 1.0mph /  1.6km/h 5.0mph /  8km/h 80% 0.02in /  0.51mm
12:44 28.6 °F /  -1.9 °C 22.9 °F /  -5.1 °C 29.64in /  1003.6hPa NNE 1.0mph /  1.6km/h 3.0mph /  4.8km/h 79% 0.02in /  0.51mm
12:49 29.0 °F /  -1.7 °C 23.6 °F /  -4.7 °C 29.64in /  1003.6hPa NE 3.0mph /  4.8km/h 5.0mph /  8km/h 80% 0.02in /  0.51mm
12:54 28.9 °F /  -1.7 °C 23.5 °F /  -4.7 °C 29.64in /  1003.6hPa ENE 1.0mph /  1.6km/h 3.0mph /  4.8km/h 80% 0.03in /  0.76mm
12:59 29.1 °F /  -1.6 °C 23.7 °F /  -4.6 °C 29.64in /  1003.6hPa East 2.0mph /  3.2km/h 2.0mph /  3.2km/h 80% 0.03in /  0.76mm
13:04 29.0 °F /  -1.7 °C 23.3 °F /  -4.8 °C 29.64in /  1003.6hPa Calm   2.0mph /  3.2km/h 79% 0.02in /  0.51mm
13:09 29.2 °F /  -1.6 °C 23.5 °F /  -4.7 °C 29.64in /  1003.6hPa Calm   3.0mph /  4.8km/h 79% 0.02in /  0.51mm
13:14 29.4 °F /  -1.4 °C 24.0 °F /  -4.4 °C 29.64in /  1003.6hPa NE 1.0mph /  1.6km/h 4.0mph /  6.4km/h 80% 0.02in /  0.51mm
13:19 29.0 °F /  -1.7 °C 23.3 °F /  -4.8 °C 29.64in /  1003.6hPa NE 1.0mph /  1.6km/h 4.0mph /  6.4km/h 79% 0.03in /  0.76mm
13:24 29.3 °F /  -1.5 °C 23.6 °F /  -4.7 °C 29.64in /  1003.6hPa NE 1.0mph /  1.6km/h 4.0mph /  6.4km/h 79% 0.03in /  0.76mm
13:29 29.3 °F /  -1.5 °C 23.9 °F /  -4.5 °C 29.64in /  1003.6hPa Calm   3.0mph /  4.8km/h 80% 0.02in /  0.51mm
13:34 29.6 °F /  -1.3 °C 23.9 °F /  -4.5 °C 29.63in /  1003.3hPa ENE 1.0mph /  1.6km/h 5.0mph /  8km/h 79% 0.02in /  0.51mm
13:39 29.5 °F /  -1.4 °C 23.8 °F /  -4.6 °C 29.64in /  1003.6hPa ENE 2.0mph /  3.2km/h 2.0mph /  3.2km/h 79% 0.03in /  0.76mm
13:44 29.5 °F /  -1.4 °C 23.8 °F /  -4.6 °C 29.64in /  1003.6hPa East 1.0mph /  1.6km/h 4.0mph /  6.4km/h 79% 0.03in /  0.76mm
13:49 29.7 °F /  -1.3 °C 24.0 °F /  -4.4 °C 29.64in /  1003.6hPa Calm   2.0mph /  3.2km/h 79% 0.03in /  0.76mm
13:54 29.8 °F /  -1.2 °C 24.1 °F /  -4.4 °C 29.64in /  1003.6hPa Calm   3.0mph /  4.8km/h 79% 0.02in /  0.51mm
13:59 29.7 °F /  -1.3 °C 24.0 °F /  -4.4 °C 29.64in /  1003.6hPa East 1.0mph /  1.6km/h 3.0mph /  4.8km/h 79% 0.02in /  0.51mm
14:04 29.5 °F /  -1.4 °C 24.1 °F /  -4.4 °C 29.64in /  1003.6hPa SSE 1.0mph /  1.6km/h 2.0mph /  3.2km/h 80% 0.03in /  0.76mm
14:09 30.1 °F /  -1.1 °C 24.4 °F /  -4.2 °C 29.64in /  1003.6hPa Calm   2.0mph /  3.2km/h 79% 0.03in /  0.76mm
14:14 30.1 °F /  -1.1 °C 24.4 °F /  -4.2 °C 29.64in /  1003.6hPa Calm     79% 0.03in /  0.76mm
14:19 29.8 °F /  -1.2 °C 24.1 °F /  -4.4 °C 29.64in /  1003.6hPa NE 1.0mph /  1.6km/h 3.0mph /  4.8km/h 79% 0.02in /  0.51mm
14:24 30.1 °F /  -1.1 °C 24.7 °F /  -4.1 °C 29.64in /  1003.6hPa NE 1.0mph /  1.6km/h 3.0mph /  4.8km/h 80% 0.02in /  0.51mm
14:29 29.9 °F /  -1.2 °C 24.2 °F /  -4.3 °C 29.64in /  1003.6hPa NE 1.0mph /  1.6km/h 2.0mph /  3.2km/h 79% 0.03in /  0.76mm
14:34 30.1 °F /  -1.1 °C 24.4 °F /  -4.2 °C 29.64in /  1003.6hPa NE 1.0mph /  1.6km/h 3.0mph /  4.8km/h 79% 0.03in /  0.76mm
14:39 29.9 °F /  -1.2 °C 24.5 °F /  -4.2 °C 29.65in /  1003.9hPa Calm   3.0mph /  4.8km/h 80% 0.02in /  0.51mm
14:44 30.4 °F /  -0.9 °C 25.3 °F /  -3.7 °C 29.65in /  1003.9hPa WNW 2.0mph /  3.2km/h 3.0mph /  4.8km/h 81% 0.02in /  0.51mm
14:49 30.4 °F /  -0.9 °C 25.0 °F /  -3.9 °C 29.65in /  1003.9hPa Calm   3.0mph /  4.8km/h 80% 0.02in /  0.51mm
14:54 30.2 °F /  -1 °C 24.8 °F /  -4 °C 29.65in /  1003.9hPa Calm   3.0mph /  4.8km/h 80% 0.02in /  0.51mm
14:59 30.4 °F /  -0.9 °C 25.0 °F /  -3.9 °C 29.66in /  1004.3hPa NNW 1.0mph /  1.6km/h 3.0mph /  4.8km/h 80% 0.03in /  0.76mm
15:04 30.4 °F /  -0.9 °C 25.0 °F /  -3.9 °C 29.66in /  1004.3hPa Calm   3.0mph /  4.8km/h 80% 0.02in /  0.51mm
15:09 30.2 °F /  -1 °C 24.5 °F /  -4.2 °C 29.66in /  1004.3hPa Calm   3.0mph /  4.8km/h 79% 0.02in /  0.51mm
15:14 30.4 °F /  -0.9 °C 24.7 °F /  -4.1 °C 29.66in /  1004.3hPa Calm     79% 0.02in /  0.51mm
15:19 30.3 °F /  -0.9 °C 24.6 °F /  -4.1 °C 29.66in /  1004.3hPa Calm     79% 0.02in /  0.51mm
15:24 30.2 °F /  -1 °C 24.5 °F /  -4.2 °C 29.67in /  1004.6hPa Calm   2.0mph /  3.2km/h 79% 0.02in /  0.51mm
15:29 30.2 °F /  -1 °C 24.8 °F /  -4 °C 29.67in /  1004.6hPa Calm   2.0mph /  3.2km/h 80% 0.02in /  0.51mm
15:34 30.6 °F /  -0.8 °C 24.9 °F /  -3.9 °C 29.67in /  1004.6hPa Calm   2.0mph /  3.2km/h 79% 0.02in /  0.51mm
15:39 30.5 °F /  -0.8 °C 24.8 °F /  -4 °C 29.67in /  1004.6hPa Calm     79% 0.02in /  0.51mm
15:44 30.3 °F /  -0.9 °C 24.6 °F /  -4.1 °C 29.67in /  1004.6hPa Calm     79% 0.02in /  0.51mm
15:49 30.1 °F /  -1.1 °C 24.7 °F /  -4.1 °C 29.67in /  1004.6hPa Calm     80% 0.02in /  0.51mm
15:54 30.1 °F /  -1.1 °C 24.7 °F /  -4.1 °C 29.67in /  1004.6hPa Calm     80% 0.02in /  0.51mm
15:59 30.1 °F /  -1.1 °C 24.7 °F /  -4.1 °C 29.68in /  1005hPa Calm     80% 0.01in /  0.25mm
16:04 30.0 °F /  -1.1 °C 24.6 °F /  -4.1 °C 29.68in /  1005hPa Calm     80% 0.02in /  0.51mm
16:09 29.9 °F /  -1.2 °C 24.8 °F /  -4 °C 29.68in /  1005hPa Calm     81% 0.02in /  0.51mm
16:14 29.9 °F /  -1.2 °C 24.5 °F /  -4.2 °C 29.68in /  1005hPa Calm     80% 0.02in /  0.51mm
16:19 29.8 °F /  -1.2 °C 24.4 °F /  -4.2 °C 29.68in /  1005hPa Calm     80% 0.02in /  0.51mm
16:24 29.8 °F /  -1.2 °C 24.7 °F /  -4.1 °C 29.69in /  1005.3hPa Calm     81% 0.02in /  0.51mm
16:29 29.8 °F /  -1.2 °C 24.7 °F /  -4.1 °C 29.69in /  1005.3hPa Calm     81% 0.01in /  0.25mm
16:34 29.8 °F /  -1.2 °C 24.4 °F /  -4.2 °C 29.69in /  1005.3hPa Calm     80% 0.01in /  0.25mm
16:39 29.8 °F /  -1.2 °C 24.7 °F /  -4.1 °C 29.69in /  1005.3hPa Calm     81% 0.01in /  0.25mm
16:44 29.8 °F /  -1.2 °C 24.7 °F /  -4.1 °C 29.69in /  1005.3hPa Calm     81% 0.01in /  0.25mm
16:49 29.8 °F /  -1.2 °C 24.7 °F /  -4.1 °C 29.69in /  1005.3hPa Calm     81% 0.01in /  0.25mm
16:54 29.8 °F /  -1.2 °C 24.7 °F /  -4.1 °C 29.70in /  1005.6hPa Calm     81% 0.01in /  0.25mm
16:59 29.8 °F /  -1.2 °C 24.7 °F /  -4.1 °C 29.70in /  1005.6hPa Calm     81% 0.01in /  0.25mm
17:04 29.8 °F /  -1.2 °C 24.7 °F /  -4.1 °C 29.70in /  1005.6hPa Calm     81% 0.00in /  0mm
17:09 29.8 °F /  -1.2 °C 24.7 °F /  -4.1 °C 29.70in /  1005.6hPa Calm     81% 0.00in /  0mm
17:14 29.8 °F /  -1.2 °C 24.7 °F /  -4.1 °C 29.70in /  1005.6hPa Calm     81% 0.00in /  0mm
17:19 29.8 °F /  -1.2 °C 24.7 °F /  -4.1 °C 29.71in /  1006hPa Calm     81% 0.00in /  0mm
17:24 29.8 °F /  -1.2 °C 24.7 °F /  -4.1 °C 29.71in /  1006hPa Calm     81% 0.00in /  0mm
17:29 29.8 °F /  -1.2 °C 24.7 °F /  -4.1 °C 29.71in /  1006hPa Calm     81% 0.00in /  0mm
17:34 29.9 °F /  -1.2 °C 24.8 °F /  -4 °C 29.71in /  1006hPa Calm     81% 0.00in /  0mm
17:39 29.8 °F /  -1.2 °C 25.0 °F /  -3.9 °C 29.71in /  1006hPa Calm     82% 0.00in /  0mm
17:44 29.9 °F /  -1.2 °C 25.1 °F /  -3.8 °C 29.72in /  1006.3hPa Calm     82% 0.00in /  0mm
17:49 29.8 °F /  -1.2 °C 25.0 °F /  -3.9 °C 29.72in /  1006.3hPa Calm     82% 0.00in /  0mm
17:54 29.8 °F /  -1.2 °C 25.0 °F /  -3.9 °C 29.72in /  1006.3hPa Calm     82% 0.00in /  0mm
17:59 29.9 °F /  -1.2 °C 25.4 °F /  -3.7 °C 29.72in /  1006.3hPa WSW 3.0mph /  4.8km/h 4.0mph /  6.4km/h 83% 0.00in /  0mm
18:04 29.8 °F /  -1.2 °C 25.3 °F /  -3.7 °C 29.72in /  1006.3hPa SW 1.0mph /  1.6km/h 4.0mph /  6.4km/h 83% 0.00in /  0mm
18:09 29.9 °F /  -1.2 °C 25.4 °F /  -3.7 °C 29.72in /  1006.3hPa SW 2.0mph /  3.2km/h 4.0mph /  6.4km/h 83% 0.00in /  0mm
18:14 29.8 °F /  -1.2 °C 25.6 °F /  -3.6 °C 29.72in /  1006.3hPa SW 2.0mph /  3.2km/h 4.0mph /  6.4km/h 84% 0.00in /  0mm
18:19 29.7 °F /  -1.3 °C 25.5 °F /  -3.6 °C 29.72in /  1006.3hPa SW 2.0mph /  3.2km/h 4.0mph /  6.4km/h 84% 0.00in /  0mm
18:24 29.7 °F /  -1.3 °C 25.5 °F /  -3.6 °C 29.72in /  1006.3hPa SW 2.0mph /  3.2km/h 4.0mph /  6.4km/h 84% 0.00in /  0mm
18:29 29.5 °F /  -1.4 °C 25.3 °F /  -3.7 °C 29.72in /  1006.3hPa SW 1.0mph /  1.6km/h 4.0mph /  6.4km/h 84% 0.00in /  0mm
18:34 29.5 °F /  -1.4 °C 25.5 °F /  -3.6 °C 29.73in /  1006.7hPa SW 2.0mph /  3.2km/h 4.0mph /  6.4km/h 85% 0.00in /  0mm
18:39 29.4 °F /  -1.4 °C 25.4 °F /  -3.7 °C 29.73in /  1006.7hPa SW 2.0mph /  3.2km/h 5.0mph /  8km/h 85% 0.00in /  0mm
18:44 29.3 °F /  -1.5 °C 25.4 °F /  -3.7 °C 29.73in /  1006.7hPa SW 2.0mph /  3.2km/h 5.0mph /  8km/h 85% 0.00in /  0mm
18:49 29.3 °F /  -1.5 °C 25.6 °F /  -3.6 °C 29.73in /  1006.7hPa SW 2.0mph /  3.2km/h 5.0mph /  8km/h 86% 0.00in /  0mm
18:54 29.2 °F /  -1.6 °C 25.5 °F /  -3.6 °C 29.73in /  1006.7hPa South 3.0mph /  4.8km/h 5.0mph /  8km/h 86% 0.00in /  0mm
18:59 29.1 °F /  -1.6 °C 25.7 °F /  -3.5 °C 29.73in /  1006.7hPa SW 1.0mph /  1.6km/h 5.0mph /  8km/h 87% 0.00in /  0mm
19:04 29.1 °F /  -1.6 °C 25.7 °F /  -3.5 °C 29.73in /  1006.7hPa SW 2.0mph /  3.2km/h 5.0mph /  8km/h 87% 0.00in /  0mm
19:09 29.0 °F /  -1.7 °C 25.6 °F /  -3.6 °C 29.73in /  1006.7hPa SW 2.0mph /  3.2km/h 5.0mph /  8km/h 87% 0.00in /  0mm
19:14 28.9 °F /  -1.7 °C 25.8 °F /  -3.4 °C 29.73in /  1006.7hPa SW 2.0mph /  3.2km/h 7.0mph /  11.3km/h 88% 0.00in /  0mm
19:19 28.7 °F /  -1.8 °C 25.6 °F /  -3.6 °C 29.73in /  1006.7hPa SW 3.0mph /  4.8km/h 7.0mph /  11.3km/h 88% 0.00in /  0mm
19:24 28.8 °F /  -1.8 °C 25.7 °F /  -3.5 °C 29.73in /  1006.7hPa WSW 2.0mph /  3.2km/h 4.0mph /  6.4km/h 88% 0.00in /  0mm
19:29 28.8 °F /  -1.8 °C 25.7 °F /  -3.5 °C 29.73in /  1006.7hPa WSW 1.0mph /  1.6km/h 4.0mph /  6.4km/h 88% 0.00in /  0mm
19:34 28.6 °F /  -1.9 °C 25.8 °F /  -3.4 °C 29.73in /  1006.7hPa WSW 1.0mph /  1.6km/h 3.0mph /  4.8km/h 89% 0.00in /  0mm
19:39 28.6 °F /  -1.9 °C 25.8 °F /  -3.4 °C 29.73in /  1006.7hPa WSW 2.0mph /  3.2km/h 4.0mph /  6.4km/h 89% 0.00in /  0mm
19:44 28.5 °F /  -1.9 °C 25.7 °F /  -3.5 °C 29.73in /  1006.7hPa WSW 2.0mph /  3.2km/h 4.0mph /  6.4km/h 89% 0.00in /  0mm
19:49 28.4 °F /  -2 °C 25.6 °F /  -3.6 °C 29.73in /  1006.7hPa SW 2.0mph /  3.2km/h 4.0mph /  6.4km/h 89% 0.00in /  0mm
19:54 28.4 °F /  -2 °C 25.6 °F /  -3.6 °C 29.73in /  1006.7hPa WSW 2.0mph /  3.2km/h 4.0mph /  6.4km/h 89% 0.00in /  0mm
19:59 28.3 °F /  -2.1 °C 25.5 °F /  -3.6 °C 29.73in /  1006.7hPa WSW 1.0mph /  1.6km/h 4.0mph /  6.4km/h 89% 0.00in /  0mm
20:04 28.3 °F /  -2.1 °C 25.5 °F /  -3.6 °C 29.73in /  1006.7hPa WSW 1.0mph /  1.6km/h 3.0mph /  4.8km/h 89% 0.00in /  0mm
20:09 28.2 °F /  -2.1 °C 25.6 °F /  -3.6 °C 29.72in /  1006.3hPa WSW 2.0mph /  3.2km/h 3.0mph /  4.8km/h 90% 0.00in /  0mm
20:14 28.2 °F /  -2.1 °C 25.6 °F /  -3.6 °C 29.73in /  1006.7hPa SW 1.0mph /  1.6km/h 3.0mph /  4.8km/h 90% 0.00in /  0mm
20:19 28.3 °F /  -2.1 °C 25.7 °F /  -3.5 °C 29.73in /  1006.7hPa SW 1.0mph /  1.6km/h 3.0mph /  4.8km/h 90% 0.00in /  0mm
20:24 28.2 °F /  -2.1 °C 25.6 °F /  -3.6 °C 29.73in /  1006.7hPa SW 2.0mph /  3.2km/h 4.0mph /  6.4km/h 90% 0.00in /  0mm
20:29 28.2 °F /  -2.1 °C 25.6 °F /  -3.6 °C 29.73in /  1006.7hPa WSW 2.0mph /  3.2km/h 3.0mph /  4.8km/h 90% 0.00in /  0mm
20:34 28.2 °F /  -2.1 °C 25.6 °F /  -3.6 °C 29.72in /  1006.3hPa SW 1.0mph /  1.6km/h 4.0mph /  6.4km/h 90% 0.00in /  0mm
20:39 28.2 °F /  -2.1 °C 25.9 °F /  -3.4 °C 29.73in /  1006.7hPa WSW 1.0mph /  1.6km/h 3.0mph /  4.8km/h 91% 0.00in /  0mm
20:44 28.3 °F /  -2.1 °C 26.0 °F /  -3.3 °C 29.73in /  1006.7hPa WSW 1.0mph /  1.6km/h 3.0mph /  4.8km/h 91% 0.00in /  0mm
20:49 28.3 °F /  -2.1 °C 26.0 °F /  -3.3 °C 29.72in /  1006.3hPa SW 1.0mph /  1.6km/h 3.0mph /  4.8km/h 91% 0.00in /  0mm
20:54 28.3 °F /  -2.1 °C 26.0 °F /  -3.3 °C 29.72in /  1006.3hPa SW 1.0mph /  1.6km/h 2.0mph /  3.2km/h 91% 0.00in /  0mm
20:59 28.3 °F /  -2.1 °C 26.0 °F /  -3.3 °C 29.72in /  1006.3hPa SW 1.0mph /  1.6km/h 2.0mph /  3.2km/h 91% 0.00in /  0mm
21:04 28.3 °F /  -2.1 °C 26.0 °F /  -3.3 °C 29.72in /  1006.3hPa Calm   2.0mph /  3.2km/h 91% 0.00in /  0mm
21:09 28.3 °F /  -2.1 °C 26.0 °F /  -3.3 °C 29.72in /  1006.3hPa Calm     91% 0.00in /  0mm
21:14 28.3 °F /  -2.1 °C 26.0 °F /  -3.3 °C 29.72in /  1006.3hPa Calm     91% 0.00in /  0mm
21:19 28.3 °F /  -2.1 °C 26.3 °F /  -3.2 °C 29.72in /  1006.3hPa Calm     92% 0.00in /  0mm
21:24 28.3 °F /  -2.1 °C 26.3 °F /  -3.2 °C 29.72in /  1006.3hPa Calm     92% 0.00in /  0mm
21:29 28.3 °F /  -2.1 °C 26.3 °F /  -3.2 °C 29.72in /  1006.3hPa Calm     92% 0.00in /  0mm
21:34 28.3 °F /  -2.1 °C 26.3 °F /  -3.2 °C 29.72in /  1006.3hPa Calm     92% 0.00in /  0mm
21:39 28.3 °F /  -2.1 °C 26.3 °F /  -3.2 °C 29.72in /  1006.3hPa Calm     92% 0.00in /  0mm
21:44 28.3 °F /  -2.1 °C 26.3 °F /  -3.2 °C 29.71in /  1006hPa Calm     92% 0.00in /  0mm
21:49 28.3 °F /  -2.1 °C 26.3 °F /  -3.2 °C 29.72in /  1006.3hPa Calm     92% 0.00in /  0mm
21:54 28.2 °F /  -2.1 °C 26.2 °F /  -3.2 °C 29.71in /  1006hPa Calm     92% 0.00in /  0mm
21:59 28.3 °F /  -2.1 °C 26.3 °F /  -3.2 °C 29.71in /  1006hPa Calm     92% 0.00in /  0mm
22:04 28.3 °F /  -2.1 °C 26.3 °F /  -3.2 °C 29.71in /  1006hPa Calm     92% 0.00in /  0mm
22:09 28.3 °F /  -2.1 °C 26.3 °F /  -3.2 °C 29.72in /  1006.3hPa Calm     92% 0.00in /  0mm
22:14 28.3 °F /  -2.1 °C 26.3 °F /  -3.2 °C 29.71in /  1006hPa Calm     92% 0.00in /  0mm
22:19 28.3 °F /  -2.1 °C 26.3 °F /  -3.2 °C 29.71in /  1006hPa Calm     92% 0.00in /  0mm
22:24 28.3 °F /  -2.1 °C 26.3 °F /  -3.2 °C 29.71in /  1006hPa Calm     92% 0.00in /  0mm
22:29 28.4 °F /  -2 °C 26.4 °F /  -3.1 °C 29.71in /  1006hPa Calm     92% 0.00in /  0mm
22:34 28.5 °F /  -1.9 °C 26.5 °F /  -3.1 °C 29.71in /  1006hPa Calm     92% 0.00in /  0mm
22:39 28.5 °F /  -1.9 °C 26.5 °F /  -3.1 °C 29.71in /  1006hPa Calm     92% 0.00in /  0mm
22:44 28.5 °F /  -1.9 °C 26.5 °F /  -3.1 °C 29.71in /  1006hPa Calm     92% 0.00in /  0mm
22:49 28.5 °F /  -1.9 °C 26.5 °F /  -3.1 °C 29.71in /  1006hPa Calm     92% 0.00in /  0mm
22:54 28.6 °F /  -1.9 °C 26.8 °F /  -2.9 °C 29.72in /  1006.3hPa Calm     93% 0.00in /  0mm
22:59 28.7 °F /  -1.8 °C 26.9 °F /  -2.8 °C 29.72in /  1006.3hPa Calm     93% 0.00in /  0mm
23:04 28.7 °F /  -1.8 °C 26.9 °F /  -2.8 °C 29.72in /  1006.3hPa Calm     93% 0.00in /  0mm
23:09 29.1 °F /  -1.6 °C 27.3 °F /  -2.6 °C 29.72in /  1006.3hPa South 1.0mph /  1.6km/h 5.0mph /  8km/h 93% 0.00in /  0mm
23:14 29.4 °F /  -1.4 °C 27.6 °F /  -2.4 °C 29.72in /  1006.3hPa West 1.0mph /  1.6km/h 5.0mph /  8km/h 93% 0.00in /  0mm
23:19 29.7 °F /  -1.3 °C 27.9 °F /  -2.3 °C 29.72in /  1006.3hPa SW 3.0mph /  4.8km/h 6.0mph /  9.7km/h 93% 0.00in /  0mm
23:24 30.1 °F /  -1.1 °C 28.3 °F /  -2.1 °C 29.73in /  1006.7hPa WSW 3.0mph /  4.8km/h 8.0mph /  12.9km/h 93% 0.00in /  0mm
23:29 30.4 °F /  -0.9 °C 28.6 °F /  -1.9 °C 29.73in /  1006.7hPa West 2.0mph /  3.2km/h 10.0mph /  16.1km/h 93% 0.00in /  0mm
23:34 30.7 °F /  -0.7 °C 28.9 °F /  -1.7 °C 29.73in /  1006.7hPa West 4.0mph /  6.4km/h 11.0mph /  17.7km/h 93% 0.00in /  0mm
23:39 30.8 °F /  -0.7 °C 29.0 °F /  -1.7 °C 29.73in /  1006.7hPa SW 6.0mph /  9.7km/h 10.0mph /  16.1km/h 93% 0.00in /  0mm
23:44 31.0 °F /  -0.6 °C 29.2 °F /  -1.6 °C 29.73in /  1006.7hPa WSW 11.0mph /  17.7km/h 14.0mph /  22.5km/h 93% 0.00in /  0mm
23:49 31.0 °F /  -0.6 °C 28.9 °F /  -1.7 °C 29.73in /  1006.7hPa WSW 6.0mph /  9.7km/h 13.0mph /  20.9km/h 92% 0.00in /  0mm
23:54 31.1 °F /  -0.5 °C 29.0 °F /  -1.7 °C 29.74in /  1007hPa WSW 6.0mph /  9.7km/h 13.0mph /  20.9km/h 92% 0.00in /  0mm
23:59 31.1 °F /  -0.5 °C 28.8 °F /  -1.8 °C 29.74in /  1007hPa WSW 6.0mph /  9.7km/h 12.0mph /  19.3km/h 91% 0.00in /  0mm
Buffalo, New York, USA
Compliments of Weather Underground - 2.5 mb